createdAt,value
2017-12-25T00:00:15.462Z,949.2
2017-12-25T00:01:23.553Z,949.2
2017-12-25T00:02:31.630Z,949.2
2017-12-25T00:03:39.716Z,949.2
2017-12-25T00:04:47.868Z,949.2
2017-12-25T00:05:55.886Z,949.1
2017-12-25T00:07:03.989Z,949.1
2017-12-25T00:08:12.059Z,949.1
2017-12-25T00:09:20.263Z,949.1
2017-12-25T00:10:28.389Z,949.1
2017-12-25T00:11:36.324Z,949.1
2017-12-25T00:12:44.411Z,949.1
2017-12-25T00:13:52.493Z,949.1
2017-12-25T00:16:08.787Z,949.1
2017-12-25T00:17:16.752Z,949.1
2017-12-25T00:18:24.837Z,949.0
2017-12-25T00:19:33.100Z,949.0
2017-12-25T00:20:41.010Z,949.0
2017-12-25T00:21:49.154Z,949.1
2017-12-25T00:22:57.183Z,949.1
2017-12-25T00:24:05.451Z,949.1
2017-12-25T00:25:13.422Z,949.0
2017-12-25T00:26:21.455Z,949.0
2017-12-25T00:27:29.591Z,949.0
2017-12-25T00:28:37.791Z,949.0
2017-12-25T00:29:45.706Z,949.0
2017-12-25T00:30:53.791Z,949.0
2017-12-25T00:32:01.875Z,949.0
2017-12-25T00:33:10.205Z,949.0
2017-12-25T00:34:18.051Z,949.0
2017-12-25T00:35:26.134Z,949.0
2017-12-25T00:36:34.219Z,948.9
2017-12-25T00:37:42.307Z,948.9
2017-12-25T00:38:50.456Z,948.9
2017-12-25T00:39:58.484Z,948.9
2017-12-25T00:41:06.698Z,948.9
2017-12-25T00:42:14.662Z,948.9
2017-12-25T00:43:22.748Z,948.9
2017-12-25T00:44:30.887Z,948.9
2017-12-25T00:45:38.917Z,948.9
2017-12-25T00:46:47.006Z,948.9
2017-12-25T00:47:55.089Z,948.9
2017-12-25T00:49:03.408Z,948.9
2017-12-25T00:50:11.318Z,948.9
2017-12-25T00:51:19.349Z,948.9
2017-12-25T00:52:27.494Z,948.9
2017-12-25T00:53:35.522Z,948.9
2017-12-25T00:54:43.602Z,948.8
2017-12-25T00:55:52.004Z,948.8
2017-12-25T00:56:59.869Z,948.8
2017-12-25T00:58:07.897Z,948.8
2017-12-25T00:59:15.984Z,948.8
2017-12-25T01:00:24.071Z,948.8
2017-12-25T01:01:32.224Z,948.8
2017-12-25T01:02:40.239Z,948.8
2017-12-25T01:03:48.330Z,948.8
2017-12-25T01:04:56.594Z,948.8
2017-12-25T01:06:04.605Z,948.8
2017-12-25T01:07:12.642Z,948.8
2017-12-25T01:08:20.667Z,948.8
2017-12-25T01:09:28.752Z,948.8
2017-12-25T01:10:36.956Z,948.7
2017-12-25T01:11:44.923Z,948.7
2017-12-25T01:12:53.077Z,948.7
2017-12-25T01:14:01.104Z,948.7
2017-12-25T01:15:09.218Z,948.7
2017-12-25T01:16:17.284Z,948.6
2017-12-25T01:17:25.356Z,948.6
2017-12-25T01:18:33.508Z,948.6
2017-12-25T01:19:41.642Z,948.6
2017-12-25T01:20:49.625Z,948.6
2017-12-25T01:21:57.711Z,948.6
2017-12-25T01:23:05.794Z,948.6
2017-12-25T01:24:13.933Z,948.7
2017-12-25T01:25:21.963Z,948.7
2017-12-25T01:26:30.045Z,948.6
2017-12-25T01:27:38.136Z,948.6
2017-12-25T01:28:46.275Z,948.6
2017-12-25T01:29:54.360Z,948.6
2017-12-25T01:31:02.389Z,948.6
2017-12-25T01:32:10.473Z,948.6
2017-12-25T01:33:18.558Z,948.6
2017-12-25T01:34:26.651Z,948.6
2017-12-25T01:35:34.805Z,948.5
2017-12-25T01:36:42.808Z,948.6
2017-12-25T01:37:50.901Z,948.6
2017-12-25T01:38:59.091Z,948.6
2017-12-25T01:40:07.070Z,948.5
2017-12-25T01:41:15.208Z,948.5
2017-12-25T01:42:23.371Z,948.5
2017-12-25T01:43:31.435Z,948.5
2017-12-25T01:44:39.525Z,948.5
2017-12-25T01:45:47.490Z,948.5
2017-12-25T01:46:55.632Z,948.5
2017-12-25T01:48:03.663Z,948.5
2017-12-25T01:49:11.747Z,948.5
2017-12-25T01:50:19.832Z,948.5
2017-12-25T01:51:28.088Z,948.5
2017-12-25T01:52:36.163Z,948.5
2017-12-25T01:53:44.084Z,948.5
2017-12-25T01:54:52.169Z,948.5
2017-12-25T01:56:00.437Z,948.5
2017-12-25T01:57:08.449Z,948.5
2017-12-25T01:58:16.478Z,948.5
2017-12-25T01:59:24.506Z,948.5
2017-12-25T02:00:32.650Z,948.5
2017-12-25T02:01:40.677Z,948.5
2017-12-25T02:02:48.763Z,948.5
2017-12-25T02:03:56.965Z,948.5
2017-12-25T02:05:04.930Z,948.5
2017-12-25T02:06:13.178Z,948.5
2017-12-25T02:07:21.100Z,948.5
2017-12-25T02:08:29.184Z,948.5
2017-12-25T02:09:37.390Z,948.5
2017-12-25T02:10:45.354Z,948.5
2017-12-25T02:11:53.444Z,948.5
2017-12-25T02:13:01.522Z,948.5
2017-12-25T02:14:09.617Z,948.5
2017-12-25T02:15:17.816Z,948.5
2017-12-25T02:16:25.837Z,948.5
2017-12-25T02:17:33.863Z,948.5
2017-12-25T02:18:41.949Z,948.5
2017-12-25T02:19:50.582Z,948.5
2017-12-25T02:20:58.175Z,948.4
2017-12-25T02:22:06.204Z,948.4
2017-12-25T02:23:14.289Z,948.4
2017-12-25T02:24:22.373Z,948.4
2017-12-25T02:25:30.590Z,948.4
2017-12-25T02:26:39.155Z,948.4
2017-12-25T02:27:46.628Z,948.4
2017-12-25T02:28:54.802Z,948.4
2017-12-25T02:30:02.794Z,948.4
2017-12-25T02:31:10.933Z,948.3
2017-12-25T02:32:19.090Z,948.3
2017-12-25T02:33:27.144Z,948.4
2017-12-25T02:34:35.174Z,948.3
2017-12-25T02:35:43.228Z,948.3
2017-12-25T02:36:51.318Z,948.3
2017-12-25T02:37:59.455Z,948.3
2017-12-25T02:39:07.644Z,948.4
2017-12-25T02:40:15.577Z,948.4
2017-12-25T02:41:23.652Z,948.3
2017-12-25T02:42:31.737Z,948.3
2017-12-25T02:43:40.719Z,948.3
2017-12-25T02:44:47.918Z,948.3
2017-12-25T02:45:56.004Z,948.3
2017-12-25T02:47:04.088Z,948.3
2017-12-25T02:48:12.267Z,948.2
2017-12-25T02:49:20.420Z,948.2
2017-12-25T02:50:28.608Z,948.3
2017-12-25T02:51:36.704Z,948.2
2017-12-25T02:52:44.788Z,948.2
2017-12-25T02:53:52.879Z,948.2
2017-12-25T02:55:01.273Z,948.2
2017-12-25T02:56:09.075Z,948.2
2017-12-25T02:57:17.128Z,948.1
2017-12-25T02:58:25.211Z,948.1
2017-12-25T02:59:33.298Z,948.1
2017-12-25T03:00:41.438Z,948.1
2017-12-25T03:01:49.478Z,948.1
2017-12-25T03:02:57.578Z,948.0
2017-12-25T03:04:05.702Z,948.1
2017-12-25T03:05:13.728Z,948.1
2017-12-25T03:06:21.937Z,948.1
2017-12-25T03:07:30.359Z,948.1
2017-12-25T03:08:38.212Z,948.1
2017-12-25T03:09:46.405Z,948.0
2017-12-25T03:10:54.392Z,948.0
2017-12-25T03:12:02.526Z,948.0
2017-12-25T03:13:10.729Z,948.0
2017-12-25T03:14:18.652Z,948.0
2017-12-25T03:15:26.730Z,948.1
2017-12-25T03:16:34.815Z,948.0
2017-12-25T03:17:43.021Z,948.0
2017-12-25T03:18:50.991Z,948.0
2017-12-25T03:19:59.125Z,948.0
2017-12-25T03:21:07.164Z,948.1
2017-12-25T03:22:15.262Z,948.0
2017-12-25T03:23:23.601Z,948.0
2017-12-25T03:24:31.415Z,948.0
2017-12-25T03:25:39.576Z,948.0
2017-12-25T03:26:47.590Z,948.0
2017-12-25T03:27:55.791Z,948.0
2017-12-25T03:29:03.874Z,948.0
2017-12-25T03:30:11.842Z,948.0
2017-12-25T03:31:20.184Z,948.0
2017-12-25T03:32:28.012Z,948.0
2017-12-25T03:33:36.096Z,948.0
2017-12-25T03:34:44.429Z,948.0
2017-12-25T03:35:52.323Z,948.0
2017-12-25T03:37:00.350Z,948.0
2017-12-25T03:38:08.510Z,948.0
2017-12-25T03:39:16.520Z,948.0
2017-12-25T03:40:24.662Z,948.0
2017-12-25T03:41:32.704Z,948.0
2017-12-25T03:42:40.777Z,948.0
2017-12-25T03:43:48.870Z,948.0
2017-12-25T03:44:56.950Z,948.0
2017-12-25T03:46:05.176Z,948.0
2017-12-25T03:47:13.120Z,948.0
2017-12-25T03:48:21.205Z,948.0
2017-12-25T03:49:29.296Z,947.9
2017-12-25T03:50:37.402Z,947.9
2017-12-25T03:51:45.518Z,947.9
2017-12-25T03:52:53.547Z,947.9
2017-12-25T03:54:01.630Z,947.9
2017-12-25T03:55:09.833Z,947.9
2017-12-25T03:56:17.859Z,947.9
2017-12-25T03:57:26.006Z,947.9
2017-12-25T03:58:33.970Z,948.0
2017-12-25T03:59:42.066Z,947.9
2017-12-25T04:00:50.140Z,947.9
2017-12-25T04:01:58.232Z,947.9
2017-12-25T04:03:06.366Z,947.9
2017-12-25T04:04:14.396Z,947.9
2017-12-25T04:05:22.494Z,947.8
2017-12-25T04:06:30.576Z,947.9
2017-12-25T04:07:38.781Z,947.8
2017-12-25T04:08:46.871Z,947.8
2017-12-25T04:09:55.006Z,947.8
2017-12-25T04:11:02.921Z,947.8
2017-12-25T04:12:11.003Z,947.8
2017-12-25T04:13:19.086Z,947.8
2017-12-25T04:14:27.229Z,947.8
2017-12-25T04:15:35.258Z,947.8
2017-12-25T04:16:43.348Z,947.8
2017-12-25T04:17:51.432Z,947.8
2017-12-25T04:18:59.515Z,947.8
2017-12-25T04:20:07.719Z,947.8
2017-12-25T04:21:15.685Z,947.8
2017-12-25T04:22:23.769Z,947.8
2017-12-25T04:23:31.912Z,947.8
2017-12-25T04:24:39.940Z,947.8
2017-12-25T04:25:48.085Z,947.8
2017-12-25T04:26:56.114Z,947.7
2017-12-25T04:28:04.199Z,947.8
2017-12-25T04:29:12.288Z,947.7
2017-12-25T04:30:20.378Z,947.7
2017-12-25T04:31:28.582Z,947.7
2017-12-25T04:32:36.727Z,947.7
2017-12-25T04:33:44.670Z,947.7
2017-12-25T04:34:52.710Z,947.7
2017-12-25T04:36:00.797Z,947.7
2017-12-25T04:37:09.065Z,947.7
2017-12-25T04:38:16.968Z,947.7
2017-12-25T04:39:25.175Z,947.7
2017-12-25T04:40:33.141Z,947.6
2017-12-25T04:41:41.226Z,947.6
2017-12-25T04:42:49.369Z,947.6
2017-12-25T04:43:57.399Z,947.6
2017-12-25T04:45:05.494Z,947.6
2017-12-25T04:46:13.584Z,947.6
2017-12-25T04:47:21.668Z,947.6
2017-12-25T04:48:29.807Z,947.6
2017-12-25T04:49:37.876Z,947.6
2017-12-25T04:50:45.963Z,947.6
2017-12-25T04:51:54.045Z,947.6
2017-12-25T04:53:02.138Z,947.6
2017-12-25T04:54:10.338Z,947.6
2017-12-25T04:55:18.363Z,947.6
2017-12-25T04:56:26.502Z,947.6
2017-12-25T04:57:34.478Z,947.6
2017-12-25T04:58:42.580Z,947.5
2017-12-25T04:59:50.706Z,947.6
2017-12-25T05:00:58.737Z,947.6
2017-12-25T05:02:06.821Z,947.5
2017-12-25T05:03:14.923Z,947.5
2017-12-25T05:04:22.996Z,947.5
2017-12-25T05:05:31.136Z,947.6
2017-12-25T05:06:39.168Z,947.5
2017-12-25T05:07:47.253Z,947.5
2017-12-25T05:08:55.338Z,947.5
2017-12-25T05:10:03.420Z,947.5
2017-12-25T05:11:11.632Z,947.5
2017-12-25T05:12:19.599Z,947.5
2017-12-25T05:13:27.681Z,947.5
2017-12-25T05:14:35.769Z,947.5
2017-12-25T05:15:43.983Z,947.5
2017-12-25T05:16:51.997Z,947.5
2017-12-25T05:18:00.025Z,947.5
2017-12-25T05:19:08.119Z,947.5
2017-12-25T05:20:16.197Z,947.5
2017-12-25T05:21:24.283Z,947.5
2017-12-25T05:22:32.428Z,947.5
2017-12-25T05:23:40.470Z,947.5
2017-12-25T05:24:48.542Z,947.5
2017-12-25T05:25:56.627Z,947.4
2017-12-25T05:27:04.833Z,947.4
2017-12-25T05:28:12.853Z,947.4
2017-12-25T05:29:20.884Z,947.4
2017-12-25T05:30:28.980Z,947.4
2017-12-25T05:31:37.064Z,947.4
2017-12-25T05:32:45.152Z,947.4
2017-12-25T05:33:53.702Z,947.4
2017-12-25T05:35:01.367Z,947.4
2017-12-25T05:36:09.410Z,947.4
2017-12-25T05:37:17.496Z,947.4
2017-12-25T05:38:25.583Z,947.4
2017-12-25T05:39:33.790Z,947.4
2017-12-25T05:40:41.753Z,947.4
2017-12-25T05:41:49.842Z,947.4
2017-12-25T05:42:57.982Z,947.4
2017-12-25T05:44:06.136Z,947.4
2017-12-25T05:45:14.156Z,947.4
2017-12-25T05:46:22.383Z,947.4
2017-12-25T05:47:30.269Z,947.4
2017-12-25T05:48:38.356Z,947.3
2017-12-25T05:49:46.443Z,947.3
2017-12-25T05:50:54.650Z,947.3
2017-12-25T05:52:02.617Z,947.3
2017-12-25T05:53:10.703Z,947.3
2017-12-25T05:54:18.789Z,947.3
2017-12-25T05:55:26.875Z,947.3
2017-12-25T05:56:35.017Z,947.3
2017-12-25T05:57:43.045Z,947.3
2017-12-25T05:58:51.265Z,947.3
2017-12-25T05:59:59.418Z,947.2
2017-12-25T06:01:07.366Z,947.2
2017-12-25T06:02:15.452Z,947.2
2017-12-25T06:03:23.478Z,947.2
2017-12-25T06:04:31.889Z,947.2
2017-12-25T06:05:39.975Z,947.1
2017-12-25T06:06:48.062Z,947.2
2017-12-25T06:07:56.203Z,947.2
2017-12-25T06:09:04.235Z,947.2
2017-12-25T06:10:12.320Z,947.1
2017-12-25T06:11:20.407Z,947.1
2017-12-25T06:12:28.532Z,947.1
2017-12-25T06:13:36.635Z,947.1
2017-12-25T06:14:44.787Z,947.1
2017-12-25T06:15:52.898Z,947.1
2017-12-25T06:17:01.052Z,947.1
2017-12-25T06:18:09.132Z,947.1
2017-12-25T06:19:17.074Z,947.1
2017-12-25T06:20:25.105Z,947.1
2017-12-25T06:21:33.192Z,947.1
2017-12-25T06:22:41.279Z,947.1
2017-12-25T06:23:49.462Z,947.1
2017-12-25T06:24:57.535Z,947.1
2017-12-25T06:26:05.565Z,947.1
2017-12-25T06:27:13.790Z,947.0
2017-12-25T06:28:21.735Z,947.0
2017-12-25T06:29:29.821Z,947.0
2017-12-25T06:30:38.027Z,947.1
2017-12-25T06:31:46.129Z,947.0
2017-12-25T06:32:54.078Z,947.1
2017-12-25T06:34:02.163Z,947.0
2017-12-25T06:35:10.250Z,947.1
2017-12-25T06:36:18.532Z,947.0
2017-12-25T06:37:26.431Z,947.0
2017-12-25T06:38:34.511Z,947.0
2017-12-25T06:39:42.597Z,947.0
2017-12-25T06:40:50.690Z,947.0
2017-12-25T06:41:58.893Z,947.0
2017-12-25T06:43:06.855Z,947.0
2017-12-25T06:44:14.941Z,947.0
2017-12-25T06:45:23.065Z,947.0
2017-12-25T06:46:31.171Z,947.0
2017-12-25T06:47:39.321Z,947.0
2017-12-25T06:48:47.288Z,947.0
2017-12-25T06:49:55.371Z,947.0
2017-12-25T06:51:03.468Z,947.0
2017-12-25T06:52:11.550Z,947.0
2017-12-25T06:53:19.691Z,946.9
2017-12-25T06:54:27.724Z,947.0
2017-12-25T06:55:35.811Z,947.0
2017-12-25T06:56:43.894Z,947.0
2017-12-25T06:57:51.980Z,947.0
2017-12-25T06:59:00.186Z,947.0
2017-12-25T07:00:08.151Z,946.9
2017-12-25T07:01:16.236Z,946.9
2017-12-25T07:02:24.381Z,946.9
2017-12-25T07:03:32.411Z,946.9
2017-12-25T07:04:40.552Z,946.9
2017-12-25T07:05:48.585Z,946.9
2017-12-25T07:06:56.671Z,946.9
2017-12-25T07:08:04.903Z,946.9
2017-12-25T07:09:12.840Z,946.9
2017-12-25T07:10:20.983Z,946.9
2017-12-25T07:11:29.017Z,946.9
2017-12-25T07:12:37.110Z,946.9
2017-12-25T07:13:45.369Z,946.9
2017-12-25T07:14:53.287Z,946.9
2017-12-25T07:16:01.490Z,946.9
2017-12-25T07:17:09.613Z,946.9
2017-12-25T07:18:17.676Z,946.8
2017-12-25T07:19:25.797Z,946.8
2017-12-25T07:20:34.182Z,946.8
2017-12-25T07:21:42.026Z,946.8
2017-12-25T07:22:50.055Z,946.8
2017-12-25T07:23:58.142Z,946.8
2017-12-25T07:25:06.273Z,946.8
2017-12-25T07:26:14.314Z,946.8
2017-12-25T07:27:22.531Z,946.8
2017-12-25T07:28:30.499Z,946.9
2017-12-25T07:29:38.584Z,946.8
2017-12-25T07:30:46.700Z,946.8
2017-12-25T07:31:54.757Z,946.8
2017-12-25T07:33:02.898Z,946.8
2017-12-25T07:34:11.049Z,946.8
2017-12-25T07:35:19.014Z,946.8
2017-12-25T07:36:27.100Z,946.7
2017-12-25T07:37:35.187Z,946.7
2017-12-25T07:38:43.334Z,946.8
2017-12-25T07:39:51.358Z,946.8
2017-12-25T07:40:59.458Z,946.8
2017-12-25T07:42:07.531Z,946.8
2017-12-25T07:43:15.618Z,946.8
2017-12-25T07:44:23.823Z,946.8
2017-12-25T07:45:31.787Z,946.8
2017-12-25T07:46:39.875Z,946.8
2017-12-25T07:47:47.960Z,946.8
2017-12-25T07:48:56.051Z,946.8
2017-12-25T07:50:04.262Z,946.8
2017-12-25T07:51:12.226Z,946.8
2017-12-25T07:52:20.319Z,946.8
2017-12-25T07:53:28.392Z,946.8
2017-12-25T07:54:36.534Z,946.8
2017-12-25T07:55:44.620Z,946.8
2017-12-25T07:56:52.654Z,946.7
2017-12-25T07:58:00.737Z,946.7
2017-12-25T07:59:08.908Z,946.8
2017-12-25T08:00:16.964Z,946.8
2017-12-25T08:01:25.123Z,946.7
2017-12-25T08:02:33.083Z,946.7
2017-12-25T08:03:41.169Z,946.7
2017-12-25T08:04:49.255Z,946.7
2017-12-25T08:05:57.398Z,946.7
2017-12-25T08:07:05.486Z,946.7
2017-12-25T08:08:14.124Z,946.7
2017-12-25T08:09:21.606Z,946.7
2017-12-25T08:10:29.688Z,946.7
2017-12-25T08:11:37.771Z,946.7
2017-12-25T08:12:46.011Z,946.7
2017-12-25T08:13:53.945Z,946.6
2017-12-25T08:15:02.036Z,946.6
2017-12-25T08:16:10.117Z,946.6
2017-12-25T08:17:18.385Z,946.6
2017-12-25T08:18:26.349Z,946.6
2017-12-25T08:19:34.380Z,946.6
2017-12-25T08:20:42.508Z,946.6
2017-12-25T08:21:50.671Z,946.6
2017-12-25T08:22:58.637Z,946.6
2017-12-25T08:24:06.779Z,946.6
2017-12-25T08:25:14.817Z,946.5
2017-12-25T08:26:23.093Z,946.6
2017-12-25T08:27:30.983Z,946.5
2017-12-25T08:28:39.067Z,946.5
2017-12-25T08:29:47.209Z,946.5
2017-12-25T08:30:55.427Z,946.5
2017-12-25T08:32:03.325Z,946.5
2017-12-25T08:33:11.414Z,946.5
2017-12-25T08:34:19.500Z,946.6
2017-12-25T08:35:27.708Z,946.6
2017-12-25T08:36:35.673Z,946.5
2017-12-25T08:37:43.815Z,946.5
2017-12-25T08:38:52.032Z,946.5
2017-12-25T08:40:00.119Z,946.5
2017-12-25T08:41:08.259Z,946.5
2017-12-25T08:42:16.294Z,946.5
2017-12-25T08:43:24.377Z,946.5
2017-12-25T08:44:32.569Z,946.5
2017-12-25T08:45:40.555Z,946.5
2017-12-25T08:46:48.755Z,946.5
2017-12-25T08:47:56.727Z,946.5
2017-12-25T08:49:04.831Z,946.5
2017-12-25T08:50:12.900Z,946.5
2017-12-25T08:51:20.982Z,946.5
2017-12-25T08:52:29.137Z,946.4
2017-12-25T08:53:37.283Z,946.4
2017-12-25T08:54:45.242Z,946.5
2017-12-25T08:55:53.331Z,946.4
2017-12-25T08:57:01.417Z,946.4
2017-12-25T08:58:09.748Z,946.4
2017-12-25T08:59:17.588Z,946.4
2017-12-25T09:00:25.673Z,946.4
2017-12-25T09:01:33.758Z,946.4
2017-12-25T09:02:41.848Z,946.4
2017-12-25T09:03:50.035Z,946.3
2017-12-25T09:04:58.018Z,946.3
2017-12-25T09:06:06.105Z,946.3
2017-12-25T09:07:14.360Z,946.4
2017-12-25T09:08:22.276Z,946.4
2017-12-25T09:09:30.419Z,946.4
2017-12-25T09:10:38.450Z,946.3
2017-12-25T09:11:46.542Z,946.3
2017-12-25T09:12:54.627Z,946.4
2017-12-25T09:14:02.710Z,946.4
2017-12-25T09:15:10.853Z,946.4
2017-12-25T09:16:18.882Z,946.4
2017-12-25T09:17:26.967Z,946.4
2017-12-25T09:18:35.056Z,946.4
2017-12-25T09:19:43.140Z,946.4
2017-12-25T09:20:51.348Z,946.4
2017-12-25T09:21:59.334Z,946.4
2017-12-25T09:23:07.399Z,946.4
2017-12-25T09:24:15.489Z,946.4
2017-12-25T09:25:23.699Z,946.4
2017-12-25T09:26:31.716Z,946.4
2017-12-25T09:27:39.748Z,946.4
2017-12-25T09:28:47.836Z,946.4
2017-12-25T09:29:55.918Z,946.4
2017-12-25T09:31:04.010Z,946.4
2017-12-25T09:32:12.151Z,946.4
2017-12-25T09:33:20.188Z,946.4
2017-12-25T09:34:28.272Z,946.4
2017-12-25T09:35:36.383Z,946.4
2017-12-25T09:36:44.527Z,946.4
2017-12-25T09:37:52.647Z,946.4
2017-12-25T09:39:00.621Z,946.4
2017-12-25T09:40:08.737Z,946.4
2017-12-25T09:41:16.843Z,946.4
2017-12-25T09:42:24.879Z,946.4
2017-12-25T09:43:33.086Z,946.4
2017-12-25T09:44:41.066Z,946.4
2017-12-25T09:45:49.138Z,946.4
2017-12-25T09:46:57.224Z,946.4
2017-12-25T09:48:05.310Z,946.4
2017-12-25T09:49:13.453Z,946.4
2017-12-25T09:50:21.482Z,946.3
2017-12-25T09:51:29.569Z,946.3
2017-12-25T09:52:37.657Z,946.4
2017-12-25T09:53:45.744Z,946.3
2017-12-25T09:54:54.056Z,946.3
2017-12-25T09:56:02.030Z,946.3
2017-12-25T09:57:10.235Z,946.2
2017-12-25T09:58:18.204Z,946.3
2017-12-25T09:59:26.298Z,946.3
2017-12-25T10:00:34.433Z,946.2
2017-12-25T10:01:42.613Z,946.3
2017-12-25T10:02:50.636Z,946.2
2017-12-25T10:03:58.638Z,946.2
2017-12-25T10:05:06.726Z,946.1
2017-12-25T10:06:14.867Z,946.1
2017-12-25T10:07:23.006Z,946.1
2017-12-25T10:08:30.983Z,946.0
2017-12-25T10:09:39.072Z,946.1
2017-12-25T10:10:47.158Z,946.1
2017-12-25T10:11:55.385Z,946.1
2017-12-25T10:13:03.390Z,946.0
2017-12-25T10:14:11.423Z,945.9
2017-12-25T10:15:19.503Z,945.9
2017-12-25T10:16:27.678Z,945.9
2017-12-25T10:17:35.948Z,945.9
2017-12-25T10:18:43.789Z,945.9
2017-12-25T10:19:51.874Z,945.9
2017-12-25T10:21:00.136Z,945.8
2017-12-25T10:22:08.047Z,945.8
2017-12-25T10:23:16.189Z,945.8
2017-12-25T10:24:24.223Z,945.8
2017-12-25T10:25:33.870Z,945.8
2017-12-25T10:26:40.390Z,945.8
2017-12-25T10:27:48.480Z,945.7
2017-12-25T10:28:56.696Z,945.7
2017-12-25T10:30:04.823Z,945.7
2017-12-25T10:31:12.747Z,945.7
2017-12-25T10:32:20.832Z,945.8
2017-12-25T10:33:28.922Z,945.7
2017-12-25T10:34:37.200Z,945.7
2017-12-25T10:35:45.094Z,945.7
2017-12-25T10:36:53.183Z,945.7
2017-12-25T10:38:01.269Z,945.6
2017-12-25T10:39:09.354Z,945.7
2017-12-25T10:40:17.561Z,945.6
2017-12-25T10:41:25.526Z,945.5
2017-12-25T10:42:33.614Z,945.5
2017-12-25T10:43:42.039Z,945.5
2017-12-25T10:44:50.187Z,945.5
2017-12-25T10:45:58.332Z,945.5
2017-12-25T10:47:06.736Z,945.5
2017-12-25T10:48:14.494Z,945.5
2017-12-25T10:49:22.582Z,945.5
2017-12-25T10:50:30.665Z,945.5
2017-12-25T10:51:38.815Z,945.5
2017-12-25T10:52:46.839Z,945.5
2017-12-25T10:53:54.926Z,945.5
2017-12-25T10:55:03.013Z,945.4
2017-12-25T10:56:11.095Z,945.4
2017-12-25T10:57:19.601Z,945.4
2017-12-25T10:58:27.277Z,945.4
2017-12-25T10:59:35.356Z,945.3
2017-12-25T11:00:43.662Z,945.3
2017-12-25T11:01:51.554Z,945.3
2017-12-25T11:02:59.735Z,945.3
2017-12-25T11:04:07.701Z,945.2
2017-12-25T11:05:15.949Z,945.2
2017-12-25T11:06:23.881Z,945.2
2017-12-25T11:07:31.963Z,945.2
2017-12-25T11:08:40.102Z,945.1
2017-12-25T11:09:48.137Z,945.1
2017-12-25T11:10:56.223Z,945.1
2017-12-25T11:12:04.310Z,945.0
2017-12-25T11:13:12.396Z,945.1
2017-12-25T11:14:20.649Z,945.0
2017-12-25T11:15:28.567Z,945.0
2017-12-25T11:16:36.712Z,945.0
2017-12-25T11:17:44.740Z,944.9
2017-12-25T11:18:52.829Z,945.0
2017-12-25T11:20:01.035Z,944.9
2017-12-25T11:21:09.001Z,944.9
2017-12-25T11:22:17.088Z,944.9
2017-12-25T11:23:25.206Z,944.8
2017-12-25T11:24:33.264Z,944.8
2017-12-25T11:25:41.405Z,944.8
2017-12-25T11:26:49.434Z,944.8
2017-12-25T11:27:57.753Z,944.8
2017-12-25T11:29:05.803Z,944.8
2017-12-25T11:30:13.888Z,944.8
2017-12-25T11:31:22.031Z,944.7
2017-12-25T11:32:30.196Z,944.7
2017-12-25T11:33:38.160Z,944.6
2017-12-25T11:34:46.248Z,944.6
2017-12-25T11:35:54.336Z,944.6
2017-12-25T11:37:02.565Z,944.6
2017-12-25T11:38:10.509Z,944.6
2017-12-25T11:39:18.590Z,944.6
2017-12-25T11:40:26.759Z,944.6
2017-12-25T11:41:34.886Z,944.6
2017-12-25T11:42:42.909Z,944.5
2017-12-25T11:43:50.938Z,944.5
2017-12-25T11:44:59.089Z,944.5
2017-12-25T11:46:07.419Z,944.5
2017-12-25T11:47:15.499Z,944.5
2017-12-25T11:48:23.707Z,944.5
2017-12-25T11:49:31.704Z,944.4
2017-12-25T11:50:39.758Z,944.4
2017-12-25T11:51:47.845Z,944.4
2017-12-25T11:52:55.933Z,944.4
2017-12-25T11:54:04.116Z,944.3
2017-12-25T11:55:13.329Z,944.3
2017-12-25T11:56:20.423Z,944.3
2017-12-25T11:57:28.317Z,944.3
2017-12-25T11:58:36.417Z,944.3
2017-12-25T11:59:44.508Z,944.3
2017-12-25T12:00:52.544Z,944.3
2017-12-25T12:02:00.639Z,944.2
2017-12-25T12:03:08.763Z,944.2
2017-12-25T12:04:16.875Z,944.2
2017-12-25T12:05:25.019Z,944.1
2017-12-25T12:06:32.987Z,944.1
2017-12-25T12:07:41.075Z,944.1
2017-12-25T12:08:49.160Z,944.1
2017-12-25T12:09:57.252Z,944.1
2017-12-25T12:11:05.408Z,944.1
2017-12-25T12:12:13.457Z,944.1
2017-12-25T12:13:21.522Z,944.1
2017-12-25T12:14:29.598Z,944.1
2017-12-25T12:15:37.687Z,944.0
2017-12-25T12:16:46.006Z,944.0
2017-12-25T12:17:53.861Z,944.0
2017-12-25T12:19:01.948Z,944.0
2017-12-25T12:20:10.088Z,944.0
2017-12-25T12:21:18.145Z,944.0
2017-12-25T12:22:26.326Z,944.0
2017-12-25T12:23:34.340Z,943.9
2017-12-25T12:24:42.375Z,943.9
2017-12-25T12:25:50.463Z,943.9
2017-12-25T12:26:58.712Z,943.9
2017-12-25T12:28:06.695Z,943.9
2017-12-25T12:29:14.730Z,943.9
2017-12-25T12:30:22.919Z,943.8
2017-12-25T12:31:30.897Z,943.8
2017-12-25T12:32:39.200Z,943.8
2017-12-25T12:33:47.193Z,943.7
2017-12-25T12:34:55.162Z,943.8
2017-12-25T12:36:03.301Z,943.8
2017-12-25T12:37:11.335Z,943.7
2017-12-25T12:38:19.420Z,943.8
2017-12-25T12:39:27.567Z,943.7
2017-12-25T12:40:35.625Z,943.7
2017-12-25T12:41:43.699Z,943.7
2017-12-25T12:42:51.766Z,943.6
2017-12-25T12:43:59.855Z,943.6
2017-12-25T12:45:07.997Z,943.6
2017-12-25T12:46:16.027Z,943.6
2017-12-25T12:47:24.115Z,943.6
2017-12-25T12:48:32.202Z,943.5
2017-12-25T12:49:40.287Z,943.5
2017-12-25T12:50:48.507Z,943.5
2017-12-25T12:51:56.826Z,943.6
2017-12-25T12:53:04.548Z,943.5
2017-12-25T12:54:12.680Z,943.5
2017-12-25T12:55:20.724Z,943.5
2017-12-25T12:56:28.865Z,943.5
2017-12-25T12:57:36.902Z,943.5
2017-12-25T12:58:44.982Z,943.5
2017-12-25T12:59:53.072Z,943.4
2017-12-25T13:01:01.158Z,943.4
2017-12-25T13:02:09.299Z,943.4
2017-12-25T13:03:17.461Z,943.4
2017-12-25T13:04:25.420Z,943.4
2017-12-25T13:05:33.502Z,943.4
2017-12-25T13:06:41.587Z,943.4
2017-12-25T13:07:49.924Z,943.4
2017-12-25T13:08:57.770Z,943.4
2017-12-25T13:10:05.859Z,943.3
2017-12-25T13:11:13.936Z,943.3
2017-12-25T13:12:22.021Z,943.3
2017-12-25T13:13:30.163Z,943.3
2017-12-25T13:14:38.196Z,943.3
2017-12-25T13:15:46.285Z,943.3
2017-12-25T13:16:54.385Z,943.2
2017-12-25T13:18:02.485Z,943.2
2017-12-25T13:19:10.602Z,943.2
2017-12-25T13:20:18.632Z,943.2
2017-12-25T13:21:26.716Z,943.2
2017-12-25T13:22:34.802Z,943.2
2017-12-25T13:23:43.011Z,943.2
2017-12-25T13:24:51.038Z,943.1
2017-12-25T13:25:59.067Z,943.2
2017-12-25T13:27:07.150Z,943.1
2017-12-25T13:29:23.326Z,943.1
2017-12-25T13:30:31.470Z,943.1
2017-12-25T13:31:39.500Z,943.1
2017-12-25T13:32:47.589Z,943.1
2017-12-25T13:33:55.673Z,943.0
2017-12-25T13:35:03.756Z,943.0
2017-12-25T13:36:11.902Z,943.0
2017-12-25T13:37:19.937Z,943.0
2017-12-25T13:38:28.033Z,943.0
2017-12-25T13:39:36.264Z,943.0
2017-12-25T13:40:44.217Z,943.0
2017-12-25T13:41:52.346Z,942.9
2017-12-25T13:43:00.377Z,942.9
2017-12-25T13:44:08.462Z,943.0
2017-12-25T13:45:16.549Z,942.9
2017-12-25T13:46:24.636Z,942.9
2017-12-25T13:47:32.784Z,942.9
2017-12-25T13:48:40.810Z,942.9
2017-12-25T13:49:48.932Z,942.9
2017-12-25T13:50:56.988Z,942.9
2017-12-25T13:52:05.068Z,942.9
2017-12-25T13:53:13.391Z,942.8
2017-12-25T13:54:21.244Z,942.8
2017-12-25T13:55:29.386Z,942.9
2017-12-25T13:56:37.416Z,942.8
2017-12-25T13:57:45.701Z,942.9
2017-12-25T13:58:53.653Z,942.9
2017-12-25T14:00:01.677Z,942.9
2017-12-25T14:01:09.759Z,942.9
2017-12-25T14:02:17.849Z,942.9
2017-12-25T14:03:25.974Z,942.8
2017-12-25T14:04:34.078Z,942.9
2017-12-25T14:05:42.108Z,942.9
2017-12-25T14:06:50.385Z,942.8
2017-12-25T14:07:58.398Z,942.8
2017-12-25T14:09:06.368Z,942.8
2017-12-25T14:10:14.511Z,942.8
2017-12-25T14:11:22.611Z,942.8
2017-12-25T14:12:30.799Z,942.7
2017-12-25T14:13:38.715Z,942.8
2017-12-25T14:14:46.809Z,942.7
2017-12-25T14:15:54.944Z,942.8
2017-12-25T14:17:03.108Z,942.7
2017-12-25T14:18:11.063Z,942.7
2017-12-25T14:19:19.148Z,942.7
2017-12-25T14:20:27.523Z,942.8
2017-12-25T14:21:35.505Z,942.7
2017-12-25T14:22:43.505Z,942.7
2017-12-25T14:23:51.596Z,942.7
2017-12-25T14:24:59.784Z,942.7
2017-12-25T14:26:07.767Z,942.7
2017-12-25T14:27:15.911Z,942.7
2017-12-25T14:28:23.943Z,942.7
2017-12-25T14:29:32.027Z,942.7
2017-12-25T14:30:40.126Z,942.7
2017-12-25T14:31:48.199Z,942.6
2017-12-25T14:32:56.348Z,942.6
2017-12-25T14:34:04.382Z,942.6
2017-12-25T14:35:12.939Z,942.6
2017-12-25T14:36:20.795Z,942.6
2017-12-25T14:37:28.877Z,942.6
2017-12-25T14:38:37.126Z,942.6